AirNav   Phillips 66 Aviation Fuel
 
 938 users online  

07A Franklin Field Airport
Union Springs, Alabama, USA

GOING TO UNION SPRINGS?


FAA INFORMATION EFFECTIVE 26 APRIL 2018

Location

FAA Identifier: 07A
Lat/Long: 32-10-00.5300N / 085-48-34.8300W
32-10.008833N / 085-48.580500W
32.1668139 / -85.8096750
(estimated)
Elevation: 300 ft. / 91.4 m (surveyed)
Variation: 01W (1985)
From city: 5 miles W of UNION SPRINGS, AL
Time zone: UTC -5 (UTC -6 during Standard Time)
Zip code: 36089

Airport Operations

Airport use: Open to the public
Activation date: 05/1963
Control tower: no
ARTCC: ATLANTA CENTER
FSS: ANNISTON FLIGHT SERVICE STATION
NOTAMs facility: ANB (NOTAM-D service available)
Attendance: UNATNDD
Wind indicator: lighted
Segmented circle: yes
Lights: ACTVT MIRL RY 14/32 AND REIL RY 32 - CTAF.
Beacon: white-green (lighted land airport)
Operates sunset to sunrise.

Airport Communications

CTAF/UNICOM: 122.8

Nearby radio navigation aids

VOR radial/distance  VOR name  Freq  Var
TGEr198/20.4TUSKEGEE VOR/DME117.3002E
MGMr094/26.1MONTGOMERY VORTAC112.1003E
EUFr289/36.9EUFAULA VORTAC109.2002E

 
NDB name  Hdg/Dist  Freq  Var  ID
BLOOD041/25.236504WTOI - --- ..

Airport Services

Fuel available: 100LL
Parking: tiedowns
Airframe service: NONE
Powerplant service: NONE
Bottled oxygen: NONE
Bulk oxygen: NONE

Runway Information

Runway 14/32

Dimensions: 3660 x 80 ft. / 1116 x 24 m
Surface: asphalt, in good condition
Weight bearing capacity: 
Single wheel: 15.0
Runway edge lights: medium intensity
RUNWAY 14  RUNWAY 32
Latitude: 32-10.199905N32-09.744467N
Longitude: 085-48.819817W085-48.353383W
Elevation: 292.5 ft.299.8 ft.
Gradient: 0.4%0.4%
Traffic pattern: leftleft
Markings: basic, in good conditionbasic, in good condition
Runway end identifier lights: yes
Obstructions: 43 ft. brush, 1662 ft. from runway, 14 ft. right of centerline, 34:1 slope to clear100 ft. trees, 1191 ft. from runway, 107 ft. right of centerline, 9:1 slope to clear

Airport Ownership and Management from official FAA records

Ownership: Publicly-owned
Owner: BULLOCK COUNTY
PO BOX 352
UNION SPRINGS, AL 36089
Phone 334-7383839
Manager: FRANKLIN FIELD AIRPORT AUTHORITY
POB 522
UNION SPRINGS, AL 36089
Phone 334-750-2109
THOMAS MAIN OR RONALD SMITH, CHAIRMAN, 334-738-3883

Airport Operational Statistics

Aircraft based on the field: 11
Single engine airplanes: 10
Multi engine airplanes: 1
    
Aircraft operations: avg 125/week *
88% transient general aviation
12% local general aviation
* for 12-month period ending 01 July 2016

Additional Remarks

DEER ON & INVOF ARPT.

Instrument Procedures

There are no published instrument procedures at 07A.

Some nearby airports with instrument procedures:

06A - Moton Field Municipal Airport (19 nm N)
KTOI - Troy Municipal Airport at N Kenneth Campbell Field (21 nm SW)
11A - Clayton Municipal Airport (24 nm SE)
KMGM - Montgomery Regional Airport (Dannelly Field) (31 nm W)
KMXF - Maxwell Air Force Base (31 nm NW)
 
Loc | Ops | Rwys | IFR | FBO | Links
Com | Nav | Svcs | Stats | Notes

AirNav Hotels Sweepstakes
 
Area around 07A (Franklin Field Airport)
 
Road maps at: MapQuest Bing Google
 
Aerial photo
WARNING: Photo may not be current or correct
Aerial photo of 07A (Franklin Field Airport)
Photo courtesy of Goodwyn, Mills and Cawood, Inc.; Southern Resources Mapping
Taken in September 2015
looking north.

Do you have a better or more recent aerial photo of Franklin Field Airport that you would like to share? If so, please send us your photo.

 
Sectional chart

 
Airport distance calculator
Flying to Franklin Field Airport? Find the distance to fly.

From to 07A

Sunrise and sunset
Times for 20-May-2018
 Local
(UTC-5)
 Zulu
(UTC)
Morning civil twilight05:1610:16
Sunrise05:4310:43
Sunset19:3600:36
Evening civil twilight20:0301:03

Current date and time
Zulu (UTC)  20-May-2018 23:44:40
Local (UTC-5)  20-May-2018 18:44:40
 
METAR
KTOI 
22nm SW 
202253Z AUTO 08004KT 9SM CLR 23/21 A3004 RMK AO2 LTG DSNT NW RAE25 TSE05 SLP170 P0000 T02280211
KMXF 
31nm NW 
202338Z AUTO 17006KT 1 1/2SM -RA BR SCT002 BKN030 BKN040 OVC085 23/21 A3004 RMK AO2 VIS 1/2V4 RAB23 SLP174 $
KMGM 
31nm W 
202253Z 16006KT 10SM CLR 29/22 A3001 RMK AO2 LTG DSNT E SLP159 T02890222
KAUO 
34nm NE 
202256Z AUTO 14010G16KT 10SM CLR 26/21 A3008 RMK AO2 LTG DSNT SE SLP198 T02610211
KEUF 
37nm E 
202258Z AUTO 13008KT 10SM CLR 26/19 A3005 RMK AO2 SLP173 T02560194
K1A9 
39nm NW 
202335Z AUTO 14005KT 10SM BKN060 28/22 A3002 RMK AO2 T02810219
KLSF 
42nm E 
202256Z AUTO 13009KT 10SM FEW200 26/22 A3006 RMK AO2 SLP183 T02630217
TAF
KTOI 
22nm SW 
201752Z 2018/2118 VRB03KT P6SM SCT040 FM202000 VRB03KT P6SM VCTS BKN050CB TEMPO 2020/2023 2SM TSRA BKN030CB FM210100 VRB02KT P6SM BKN080 FM210900 00000KT P6SM OVC015 TEMPO 2111/2114 OVC007
NOTAMs
Click for the latest NOTAMs
NOTAMs are issued by the DoD/FAA and will open in a separate window not controlled by AirNav.

 

 
 

FBO, Fuel Providers, and Aircraft Ground Support

  
 Business Name 
 
 Contact 
 
 Services / Description 
 
Fuel Prices
 
Comments
  
Franklin Field Airport Authority 334-750-2109
[web site]
[email]
Aviation fuel, Aircraft parking (ramp or tiedown), Hangar leasing / sales, Pilots lounge / snooze room, Internet access, Restrooms

More info about Franklin Field Airport Authority
independent
100LL
SS $3.95 
 Updated 03-May-2018
 
   write
SS=Self service
Update Fuel Prices
 

Would you like to see your business listed on this page?

 If your business provides an interesting product or service to pilots, flight crews, aircraft, or users of the Franklin Field Airport, you should consider listing it here.  To start the listing process, click on the button below
 
Add a business
 

Other Pages about Franklin Field Airport

www.franklinfieldairport.com
 
Update a link
 
Copyright © AirNav, LLC. All rights reserved. Privacy Policy  Contact